createdAt,value
2023-05-25T17:27:18.291Z,39.23
2023-05-25T17:36:23.224Z,39.20
2023-05-25T17:38:51.902Z,39.55
2023-05-25T17:41:23.685Z,39.91
2023-05-25T17:43:52.341Z,40.32
2023-05-25T17:46:20.400Z,40.63
2023-05-25T17:48:50.116Z,41.06
2023-05-25T17:51:20.353Z,41.50
2023-05-25T17:53:47.911Z,41.87
2023-05-25T17:56:14.963Z,42.35
2023-05-25T17:58:47.432Z,42.57
2023-05-25T18:01:18.761Z,42.97
2023-05-25T18:03:53.594Z,43.10
2023-05-25T18:06:29.190Z,43.24
2023-05-25T18:08:59.484Z,43.40
2023-05-25T18:11:30.572Z,43.28
2023-05-25T18:13:57.870Z,43.35
2023-05-25T18:16:30.414Z,43.34
2023-05-25T18:18:58.937Z,43.39
2023-05-25T18:21:28.130Z,43.49
2023-05-25T18:23:55.366Z,43.63
2023-05-25T18:26:23.345Z,43.87
2023-05-25T18:28:51.028Z,44.05
2023-05-25T18:31:24.475Z,44.09
2023-05-25T18:33:55.414Z,44.35
2023-05-25T18:36:25.192Z,44.49
2023-05-25T18:38:56.766Z,44.60
2023-05-25T18:41:26.545Z,44.64
2023-05-25T18:43:57.795Z,44.71
2023-05-25T18:46:28.436Z,44.83
2023-05-25T18:48:55.694Z,44.77
2023-05-25T18:51:29.684Z,44.68
2023-05-25T18:53:58.636Z,44.75
2023-05-25T18:56:27.060Z,44.93
2023-05-25T18:58:56.761Z,44.70
2023-05-25T19:01:25.372Z,44.72
2023-05-25T19:03:58.298Z,44.67
2023-05-25T19:06:28.397Z,44.57
2023-05-25T19:08:59.915Z,44.55
2023-05-25T19:11:36.773Z,44.44
